createdAt,value
2022-10-10T00:01:16.525Z,10.10
2022-10-10T00:03:44.980Z,10.00
2022-10-10T00:06:13.971Z,10.00
2022-10-10T00:08:44.003Z,10.00
2022-10-10T00:11:12.587Z,10.00
2022-10-10T00:13:41.116Z,10.00
2022-10-10T00:16:09.311Z,9.90
2022-10-10T00:18:38.294Z,9.90
2022-10-10T00:21:06.933Z,9.90
2022-10-10T00:23:35.092Z,9.90
2022-10-10T00:26:08.775Z,9.80
2022-10-10T00:28:39.060Z,9.80
2022-10-10T00:31:07.542Z,9.90
2022-10-10T00:33:35.742Z,9.90
2022-10-10T00:36:03.888Z,9.90
2022-10-10T00:38:32.965Z,9.90
2022-10-10T00:41:01.815Z,9.90
2022-10-10T00:43:31.799Z,9.90
2022-10-10T00:46:00.048Z,9.90
2022-10-10T00:48:31.227Z,9.90
2022-10-10T00:51:02.827Z,10.00
2022-10-10T00:53:35.380Z,10.00
2022-10-10T00:56:05.076Z,10.00
2022-10-10T00:58:35.692Z,10.00
2022-10-10T01:01:03.833Z,10.00
2022-10-10T01:03:31.984Z,10.00
2022-10-10T01:06:00.254Z,10.00
2022-10-10T01:08:29.007Z,10.00
2022-10-10T01:11:17.527Z,10.00
2022-10-10T01:13:56.358Z,10.00
2022-10-10T01:16:30.555Z,10.00
2022-10-10T01:19:06.796Z,9.90
2022-10-10T01:21:43.379Z,9.90
2022-10-10T01:24:39.006Z,9.90
2022-10-10T01:27:26.426Z,9.90
2022-10-10T01:30:02.564Z,9.90
2022-10-10T01:32:35.287Z,9.80
2022-10-10T01:35:28.791Z,9.80
2022-10-10T01:38:06.212Z,9.80
2022-10-10T01:40:40.236Z,9.80
2022-10-10T01:43:09.934Z,9.80
2022-10-10T01:45:44.359Z,9.80
2022-10-10T01:48:12.608Z,9.70
2022-10-10T01:50:54.586Z,9.70
2022-10-10T01:53:28.966Z,9.70
2022-10-10T01:56:05.528Z,9.60
2022-10-10T01:58:54.660Z,9.50
2022-10-10T02:01:50.901Z,9.50
2022-10-10T02:04:25.515Z,9.50
2022-10-10T02:06:58.420Z,9.40
2022-10-10T02:09:35.808Z,9.40
2022-10-10T02:12:05.452Z,9.40
2022-10-10T02:14:37.225Z,9.40
2022-10-10T02:17:10.965Z,9.40
2022-10-10T02:19:43.364Z,9.40
2022-10-10T02:22:11.866Z,9.40
2022-10-10T02:24:40.025Z,9.30
2022-10-10T02:27:49.755Z,9.30
2022-10-10T02:30:18.542Z,9.20
2022-10-10T02:32:51.121Z,9.20
2022-10-10T02:35:26.444Z,9.10
2022-10-10T02:37:55.928Z,9.10
2022-10-10T02:40:28.527Z,9.10
2022-10-10T02:42:58.690Z,9.00
2022-10-10T02:45:28.866Z,9.00
2022-10-10T02:47:58.392Z,8.90
2022-10-10T02:50:27.418Z,8.90
2022-10-10T02:52:55.575Z,8.80
2022-10-10T02:55:23.776Z,8.80
2022-10-10T02:57:52.062Z,8.70
2022-10-10T03:00:20.666Z,8.70
2022-10-10T03:02:48.911Z,8.70
2022-10-10T03:05:18.716Z,8.70
2022-10-10T03:07:46.833Z,8.70
2022-10-10T03:10:14.978Z,8.70
2022-10-10T03:12:43.045Z,8.70
2022-10-10T03:15:12.077Z,8.70
2022-10-10T03:17:40.451Z,8.70
2022-10-10T03:20:09.770Z,8.70
2022-10-10T03:22:39.360Z,8.70
2022-10-10T03:25:07.992Z,8.70
2022-10-10T03:27:36.055Z,8.70
2022-10-10T03:30:04.709Z,8.70
2022-10-10T03:32:32.831Z,8.70
2022-10-10T03:35:00.900Z,8.70
2022-10-10T03:37:29.007Z,8.60
2022-10-10T03:39:58.446Z,8.60
2022-10-10T03:42:26.558Z,8.60
2022-10-10T03:44:54.650Z,8.60
2022-10-10T03:47:22.771Z,8.60
2022-10-10T03:49:50.903Z,8.60
2022-10-10T03:52:19.037Z,8.60
2022-10-10T03:54:47.116Z,8.70
2022-10-10T03:57:16.639Z,8.60
2022-10-10T03:59:44.754Z,8.60
2022-10-10T04:02:12.859Z,8.60
2022-10-10T04:04:40.955Z,8.70
2022-10-10T04:07:09.239Z,8.70
2022-10-10T04:09:37.458Z,8.60
2022-10-10T04:12:06.031Z,8.60
2022-10-10T04:14:35.552Z,8.60
2022-10-10T04:17:03.634Z,8.50
2022-10-10T04:19:31.715Z,8.50
2022-10-10T04:21:59.795Z,8.40
2022-10-10T04:24:28.127Z,8.40
2022-10-10T04:26:56.307Z,8.40
2022-10-10T04:29:24.396Z,8.30
2022-10-10T04:31:53.919Z,8.30
2022-10-10T04:34:22.050Z,8.30
2022-10-10T04:36:50.179Z,8.30
2022-10-10T04:39:18.251Z,8.30
2022-10-10T04:41:49.872Z,8.30
2022-10-10T04:44:18.134Z,8.30
2022-10-10T04:46:46.655Z,8.30
2022-10-10T04:49:16.122Z,8.30
2022-10-10T04:51:44.283Z,8.30
2022-10-10T04:54:13.279Z,8.20
2022-10-10T04:56:42.547Z,8.30
2022-10-10T04:59:11.254Z,8.20
2022-10-10T05:01:39.391Z,8.20
2022-10-10T05:04:07.779Z,8.20
2022-10-10T05:06:37.273Z,8.20
2022-10-10T05:09:05.527Z,8.20
2022-10-10T05:11:33.617Z,8.10
2022-10-10T05:14:01.706Z,8.20
2022-10-10T05:16:29.963Z,8.20
2022-10-10T05:18:58.336Z,8.20
2022-10-10T05:21:26.658Z,8.20
2022-10-10T05:23:56.118Z,8.20
2022-10-10T05:26:24.230Z,8.10
2022-10-10T05:28:52.361Z,8.10
2022-10-10T05:31:20.388Z,8.10
2022-10-10T05:33:48.577Z,8.10
2022-10-10T05:36:16.797Z,8.00
2022-10-10T05:38:45.013Z,8.00
2022-10-10T05:41:14.489Z,8.00
2022-10-10T05:43:42.573Z,8.00
2022-10-10T05:46:10.867Z,8.00
2022-10-10T05:48:39.047Z,8.00
2022-10-10T05:51:08.467Z,8.00
2022-10-10T05:53:36.549Z,8.00
2022-10-10T05:56:04.672Z,8.00
2022-10-10T05:58:34.128Z,8.00
2022-10-10T06:01:05.036Z,8.00
2022-10-10T06:03:33.605Z,8.00
2022-10-10T06:06:02.010Z,8.00
2022-10-10T06:08:31.071Z,8.00
2022-10-10T06:11:03.849Z,8.00
2022-10-10T06:13:33.343Z,8.00
2022-10-10T06:16:01.473Z,7.90
2022-10-10T06:18:29.638Z,8.00
2022-10-10T06:21:02.629Z,8.00
2022-10-10T06:23:31.034Z,8.10
2022-10-10T06:25:59.290Z,8.20
2022-10-10T06:28:27.582Z,8.30
2022-10-10T06:31:00.938Z,8.40
2022-10-10T06:33:28.913Z,8.50
2022-10-10T06:35:57.194Z,8.70
2022-10-10T06:38:25.411Z,9.00
2022-10-10T06:40:54.797Z,9.20
2022-10-10T06:43:25.599Z,9.40
2022-10-10T06:45:53.663Z,9.70
2022-10-10T06:48:29.974Z,10.00
2022-10-10T06:51:00.269Z,10.30
2022-10-10T06:53:31.207Z,10.60
2022-10-10T06:55:59.879Z,10.80
2022-10-10T06:58:29.729Z,11.00
2022-10-10T07:00:59.548Z,11.20
2022-10-10T07:03:33.646Z,11.30
2022-10-10T07:06:03.552Z,11.50
2022-10-10T07:08:31.746Z,11.70
2022-10-10T07:10:59.838Z,12.00
2022-10-10T07:13:27.924Z,12.20
2022-10-10T07:15:56.018Z,12.50
2022-10-10T07:18:24.399Z,12.70
2022-10-10T07:20:57.223Z,12.90
2022-10-10T07:23:25.611Z,13.20
2022-10-10T07:25:53.895Z,13.40
2022-10-10T07:28:21.971Z,13.70
2022-10-10T07:30:50.104Z,13.90
2022-10-10T07:33:18.331Z,14.10
2022-10-10T07:35:55.611Z,14.40
2022-10-10T07:38:23.650Z,14.70
2022-10-10T07:40:51.690Z,14.90
2022-10-10T07:43:19.884Z,15.20
2022-10-10T07:45:48.308Z,15.50
2022-10-10T07:48:37.372Z,15.70
2022-10-10T07:51:09.260Z,15.90
2022-10-10T07:53:37.989Z,16.20
2022-10-10T07:56:06.612Z,16.40
2022-10-10T07:58:35.339Z,16.70
2022-10-10T08:01:08.289Z,16.90
2022-10-10T08:03:51.671Z,17.20
2022-10-10T08:06:31.015Z,17.40
2022-10-10T08:09:02.772Z,17.70
2022-10-10T08:11:30.921Z,18.00
2022-10-10T08:13:59.012Z,18.20
2022-10-10T08:16:27.700Z,18.50
2022-10-10T08:18:55.963Z,18.70
2022-10-10T08:21:25.722Z,18.90
2022-10-10T08:23:53.831Z,19.10
2022-10-10T08:26:31.749Z,19.40
2022-10-10T08:29:03.025Z,19.60
2022-10-10T08:31:41.705Z,19.90
2022-10-10T08:34:10.336Z,20.10
2022-10-10T08:36:40.158Z,20.30
2022-10-10T08:39:08.820Z,20.50
2022-10-10T08:41:42.845Z,20.60
2022-10-10T08:44:18.905Z,20.80
2022-10-10T08:46:51.379Z,20.80
2022-10-10T08:49:25.526Z,20.90
2022-10-10T08:52:02.096Z,21.00
2022-10-10T08:54:32.697Z,21.20
2022-10-10T08:57:05.390Z,21.30
2022-10-10T08:59:36.677Z,21.50
2022-10-10T09:02:43.598Z,21.60
2022-10-10T09:05:21.017Z,21.70
2022-10-10T09:08:08.316Z,21.80
2022-10-10T09:10:44.605Z,21.70
2022-10-10T09:13:25.495Z,21.70
2022-10-10T09:15:59.012Z,21.70
2022-10-10T09:18:47.171Z,21.70
2022-10-10T09:21:17.902Z,21.80
2022-10-10T09:23:52.127Z,21.90
2022-10-10T09:26:25.945Z,22.10
2022-10-10T09:28:58.160Z,22.20
2022-10-10T09:31:32.449Z,22.30
2022-10-10T09:34:09.569Z,22.50
2022-10-10T09:36:39.282Z,22.50
2022-10-10T09:39:22.245Z,22.50
2022-10-10T09:41:56.898Z,22.60
2022-10-10T09:44:25.619Z,22.70
2022-10-10T09:46:53.936Z,22.80
2022-10-10T09:49:23.004Z,22.90
2022-10-10T09:51:51.262Z,23.10
2022-10-10T09:54:21.672Z,23.30
2022-10-10T09:56:54.126Z,23.60
2022-10-10T09:59:39.596Z,23.80
2022-10-10T10:02:15.261Z,24.00
2022-10-10T10:04:43.485Z,24.20
2022-10-10T10:07:25.028Z,24.50
2022-10-10T10:09:56.677Z,24.70
2022-10-10T10:12:26.436Z,24.90
2022-10-10T10:15:00.813Z,25.00
2022-10-10T10:17:29.140Z,25.20
2022-10-10T10:19:57.215Z,25.30
2022-10-10T10:22:34.195Z,25.30
2022-10-10T10:25:31.921Z,25.40
2022-10-10T10:28:16.726Z,25.50
2022-10-10T10:30:46.270Z,25.60
2022-10-10T10:33:24.583Z,25.70
2022-10-10T10:36:00.214Z,25.90
2022-10-10T10:38:40.823Z,26.00
2022-10-10T10:41:20.766Z,26.20
2022-10-10T10:44:25.695Z,26.40
2022-10-10T10:47:06.684Z,26.60
2022-10-10T10:49:41.729Z,26.80
2022-10-10T10:52:40.778Z,26.90
2022-10-10T10:55:22.907Z,27.00
2022-10-10T11:01:23.961Z,27.00
2022-10-10T11:05:18.899Z,27.10
2022-10-10T11:07:18.381Z,27.20
2022-10-10T11:09:55.353Z,27.40
2022-10-10T11:12:35.175Z,27.40
2022-10-10T11:15:10.774Z,27.40
2022-10-10T11:17:42.813Z,27.40
2022-10-10T11:20:23.122Z,27.40
2022-10-10T11:22:55.067Z,27.40
2022-10-10T11:25:27.613Z,27.40
2022-10-10T11:28:03.905Z,27.50
2022-10-10T11:30:40.358Z,27.60
2022-10-10T11:33:14.823Z,27.80
2022-10-10T11:35:48.000Z,27.90
2022-10-10T11:38:24.452Z,27.90
2022-10-10T11:40:59.414Z,27.90
2022-10-10T11:43:36.044Z,28.00
2022-10-10T11:46:19.948Z,28.00
2022-10-10T11:48:58.061Z,28.10
2022-10-10T11:51:38.023Z,28.20
2022-10-10T11:54:14.340Z,28.30
2022-10-10T11:56:45.946Z,28.40
2022-10-10T11:59:21.085Z,28.50
2022-10-10T12:01:54.982Z,28.50
2022-10-10T12:04:23.855Z,28.40
2022-10-10T12:06:56.673Z,28.40
2022-10-10T12:09:26.247Z,28.50
2022-10-10T12:11:58.863Z,28.60
2022-10-10T12:14:30.137Z,28.60
2022-10-10T12:17:00.851Z,28.70
2022-10-10T12:19:30.258Z,28.70
2022-10-10T12:22:03.395Z,28.80
2022-10-10T12:24:32.968Z,29.00
2022-10-10T12:27:29.854Z,29.00
2022-10-10T12:30:19.681Z,29.10
2022-10-10T12:32:54.122Z,29.30
2022-10-10T12:35:34.788Z,29.40
2022-10-10T12:38:23.453Z,29.60
2022-10-10T12:41:15.063Z,29.80
2022-10-10T12:43:51.496Z,30.00
2022-10-10T12:46:26.605Z,30.10
2022-10-10T12:49:16.240Z,30.30
2022-10-10T12:51:46.207Z,30.30
2022-10-10T12:54:25.550Z,30.30
2022-10-10T12:57:01.515Z,30.10
2022-10-10T12:59:29.887Z,30.10
2022-10-10T13:02:03.993Z,30.00
2022-10-10T13:04:34.040Z,30.00
2022-10-10T13:07:04.658Z,29.90
2022-10-10T13:09:36.055Z,29.90
2022-10-10T13:12:06.049Z,30.10
2022-10-10T13:14:41.230Z,30.10
2022-10-10T13:17:26.673Z,30.20
2022-10-10T13:19:58.147Z,30.30
2022-10-10T13:22:27.317Z,30.30
2022-10-10T13:24:55.734Z,30.30
2022-10-10T13:27:26.375Z,30.30
2022-10-10T13:29:55.840Z,30.30
2022-10-10T13:32:27.107Z,30.30
2022-10-10T13:35:52.019Z,30.30
2022-10-10T13:38:26.105Z,30.20
2022-10-10T13:41:06.214Z,30.20
2022-10-10T13:43:38.038Z,30.10
2022-10-10T13:51:36.661Z,30.00
2022-10-10T13:54:44.751Z,30.00
2022-10-10T13:57:51.779Z,29.90
2022-10-10T14:03:23.494Z,29.50
2022-10-10T14:05:53.299Z,29.30
2022-10-10T14:08:26.931Z,29.30
2022-10-10T14:11:04.325Z,29.30
2022-10-10T14:13:34.193Z,29.20
2022-10-10T14:16:12.588Z,29.10
2022-10-10T14:18:40.696Z,28.90
2022-10-10T14:21:09.538Z,28.70
2022-10-10T14:23:38.674Z,28.50
2022-10-10T14:26:12.824Z,28.40
2022-10-10T14:28:41.510Z,28.20
2022-10-10T14:31:09.798Z,28.00
2022-10-10T14:33:38.286Z,27.90
2022-10-10T14:36:07.245Z,27.70
2022-10-10T14:38:35.395Z,27.60
2022-10-10T14:41:06.860Z,27.50
2022-10-10T14:43:36.735Z,27.40
2022-10-10T14:46:04.965Z,27.30
2022-10-10T14:48:33.035Z,27.30
2022-10-10T14:51:01.478Z,27.20
2022-10-10T14:54:10.865Z,27.10
2022-10-10T14:57:08.680Z,27.00
2022-10-10T14:59:47.087Z,27.00
2022-10-10T15:02:15.509Z,26.90
2022-10-10T15:04:43.604Z,26.80
2022-10-10T15:07:14.256Z,26.80
2022-10-10T15:10:02.561Z,26.70
2022-10-10T15:12:31.624Z,26.70
2022-10-10T15:15:04.159Z,26.70
2022-10-10T15:17:34.544Z,26.60
2022-10-10T15:20:03.426Z,26.50
2022-10-10T15:22:32.568Z,26.40
2022-10-10T15:25:01.871Z,26.30
2022-10-10T15:27:30.013Z,26.20
2022-10-10T15:29:58.183Z,26.20
2022-10-10T15:32:33.545Z,26.10
2022-10-10T15:35:01.821Z,25.90
2022-10-10T15:37:29.952Z,25.80
2022-10-10T15:39:58.058Z,25.60
2022-10-10T15:42:28.876Z,25.40
2022-10-10T15:44:57.096Z,25.20
2022-10-10T15:47:25.182Z,24.90
2022-10-10T15:49:54.681Z,24.70
2022-10-10T15:52:24.840Z,24.50
2022-10-10T15:54:52.984Z,24.20
2022-10-10T15:58:10.567Z,24.00
2022-10-10T16:00:39.431Z,23.80
2022-10-10T16:03:07.954Z,23.60
2022-10-10T16:05:39.687Z,23.40
2022-10-10T16:08:37.189Z,23.20
2022-10-10T16:11:09.982Z,23.00
2022-10-10T16:13:42.061Z,22.80
2022-10-10T16:16:12.361Z,22.60
2022-10-10T16:18:41.896Z,22.50
2022-10-10T16:21:14.345Z,22.40
2022-10-10T16:23:42.453Z,22.30
2022-10-10T16:26:14.135Z,22.10
2022-10-10T16:28:42.505Z,22.10
2022-10-10T16:31:12.565Z,22.00
2022-10-10T16:33:41.403Z,21.90
2022-10-10T16:36:12.763Z,21.80
2022-10-10T16:38:41.210Z,21.80
2022-10-10T16:41:28.894Z,21.80
2022-10-10T16:43:59.344Z,21.80
2022-10-10T16:46:28.138Z,21.70
2022-10-10T16:48:59.119Z,21.60
2022-10-10T16:51:30.210Z,21.60
2022-10-10T16:54:01.777Z,21.60
2022-10-10T16:56:30.760Z,21.50
2022-10-10T16:58:59.931Z,21.40
2022-10-10T17:01:28.650Z,21.40
2022-10-10T17:03:58.918Z,21.30
2022-10-10T17:06:34.939Z,21.10
2022-10-10T17:09:05.634Z,21.00
2022-10-10T17:11:34.090Z,20.90
2022-10-10T17:14:02.401Z,20.80
2022-10-10T17:17:07.083Z,20.70
2022-10-10T17:19:19.783Z,20.60
2022-10-10T17:21:52.236Z,20.50
2022-10-10T17:24:20.374Z,20.50
2022-10-10T17:26:48.573Z,20.40
2022-10-10T17:29:16.596Z,20.30
2022-10-10T17:31:44.688Z,20.20
2022-10-10T17:34:13.134Z,20.10
2022-10-10T17:36:41.290Z,20.10
2022-10-10T17:39:10.846Z,20.00
2022-10-10T17:41:39.024Z,20.00
2022-10-10T17:44:10.856Z,20.00
2022-10-10T17:46:39.754Z,20.00
2022-10-10T17:49:24.500Z,19.90
2022-10-10T17:52:30.791Z,19.90
2022-10-10T17:55:00.312Z,19.80
2022-10-10T17:57:28.361Z,19.80
2022-10-10T17:59:56.735Z,19.80
2022-10-10T18:02:24.917Z,19.70
2022-10-10T18:04:53.084Z,19.70
2022-10-10T18:07:21.183Z,19.60
2022-10-10T18:09:51.976Z,19.50
2022-10-10T18:12:21.597Z,19.50
2022-10-10T18:14:50.120Z,19.50
2022-10-10T18:17:18.173Z,19.40
2022-10-10T18:19:46.284Z,19.40
2022-10-10T18:22:15.566Z,19.40
2022-10-10T18:24:43.657Z,19.40
2022-10-10T18:27:11.738Z,19.40
2022-10-10T18:29:42.380Z,19.40
2022-10-10T18:32:10.561Z,19.40
2022-10-10T18:34:38.722Z,19.50
2022-10-10T18:37:07.200Z,19.50
2022-10-10T18:39:37.289Z,19.50
2022-10-10T18:42:05.810Z,19.50
2022-10-10T18:44:33.932Z,19.50
2022-10-10T18:47:03.428Z,19.50
2022-10-10T18:49:31.691Z,19.40
2022-10-10T18:51:59.808Z,19.40
2022-10-10T18:54:30.171Z,19.40
2022-10-10T18:56:58.234Z,19.40
2022-10-10T18:59:26.322Z,19.40
2022-10-10T19:01:55.327Z,19.40
2022-10-10T19:04:25.234Z,19.40
2022-10-10T19:06:57.381Z,19.40
2022-10-10T19:09:26.834Z,19.50
2022-10-10T19:11:55.162Z,19.50
2022-10-10T19:14:23.559Z,19.50
2022-10-10T19:16:51.865Z,19.50
2022-10-10T19:19:20.929Z,19.60
2022-10-10T19:21:51.833Z,19.60
2022-10-10T19:24:21.421Z,19.60
2022-10-10T19:26:55.866Z,19.60
2022-10-10T19:29:25.109Z,19.60
2022-10-10T19:31:53.197Z,19.60
2022-10-10T19:34:21.346Z,19.60
2022-10-10T19:36:50.805Z,19.50
2022-10-10T19:39:18.904Z,19.50
2022-10-10T19:41:47.005Z,19.50
2022-10-10T19:44:15.091Z,19.50
2022-10-10T19:46:43.167Z,19.50
2022-10-10T19:49:11.741Z,19.40
2022-10-10T19:51:40.198Z,19.40
2022-10-10T19:54:09.726Z,19.40
2022-10-10T19:56:37.805Z,19.40
2022-10-10T19:59:06.056Z,19.30
2022-10-10T20:01:34.289Z,19.30
2022-10-10T20:04:02.440Z,19.20
2022-10-10T20:06:30.660Z,19.20
2022-10-10T20:08:59.003Z,19.20
2022-10-10T20:11:28.501Z,19.10
2022-10-10T20:13:57.398Z,19.10
2022-10-10T20:16:27.626Z,19.00
2022-10-10T20:18:57.337Z,19.00
2022-10-10T20:21:29.287Z,18.90
2022-10-10T20:23:58.222Z,18.90
2022-10-10T20:26:28.039Z,18.80
2022-10-10T20:28:57.507Z,18.80
2022-10-10T20:31:27.058Z,18.80
2022-10-10T20:33:58.295Z,18.70
2022-10-10T20:36:26.988Z,18.70
2022-10-10T20:38:56.293Z,18.60
2022-10-10T20:41:25.948Z,18.60
2022-10-10T20:43:59.546Z,18.60
2022-10-10T20:46:29.142Z,18.50
2022-10-10T20:48:58.272Z,18.50
2022-10-10T20:51:27.220Z,18.50
2022-10-10T20:53:58.568Z,18.40
2022-10-10T20:57:14.143Z,18.40
2022-10-10T20:59:43.631Z,18.30
2022-10-10T21:02:17.132Z,18.30
2022-10-10T21:04:52.630Z,18.20
2022-10-10T21:08:07.455Z,18.30
2022-10-10T21:10:46.485Z,18.20
2022-10-10T21:13:21.121Z,18.00
2022-10-10T21:19:59.181Z,17.80
2022-10-10T21:22:27.256Z,17.60
2022-10-10T21:24:55.325Z,17.50
2022-10-10T21:27:23.420Z,17.50
2022-10-10T21:29:51.503Z,17.40
2022-10-10T21:32:19.576Z,17.30
2022-10-10T21:34:52.037Z,17.30
2022-10-10T21:38:16.529Z,17.30
2022-10-10T21:40:45.310Z,17.20
2022-10-10T21:43:13.823Z,17.10
2022-10-10T21:45:43.244Z,17.10
2022-10-10T21:48:13.245Z,17.00
2022-10-10T21:54:40.464Z,16.80
2022-10-10T21:57:08.531Z,16.70
2022-10-10T21:59:36.633Z,16.60
2022-10-10T22:02:04.952Z,16.50
2022-10-10T22:04:33.074Z,16.40
2022-10-10T22:07:01.496Z,16.30
2022-10-10T22:09:29.656Z,16.20
2022-10-10T22:11:59.107Z,16.20
2022-10-10T22:14:27.228Z,16.20
2022-10-10T22:16:55.303Z,16.20
2022-10-10T22:19:23.415Z,16.10
2022-10-10T22:21:51.619Z,16.10
2022-10-10T22:24:19.704Z,16.10
2022-10-10T22:26:47.786Z,16.00
2022-10-10T22:29:17.248Z,15.90
2022-10-10T22:31:45.416Z,15.90
2022-10-10T22:34:13.533Z,15.80
2022-10-10T22:36:41.778Z,15.80
2022-10-10T22:39:11.127Z,15.70
2022-10-10T22:41:39.217Z,15.60
2022-10-10T22:44:07.586Z,15.60
2022-10-10T22:46:37.140Z,15.50
2022-10-10T22:49:05.431Z,15.50
2022-10-10T22:51:33.503Z,15.50
2022-10-10T22:54:01.640Z,15.50
2022-10-10T22:56:29.821Z,15.60
2022-10-10T22:58:57.936Z,15.60
2022-10-10T23:01:27.323Z,15.60
2022-10-10T23:04:00.394Z,15.60
2022-10-10T23:06:28.612Z,15.60
2022-10-10T23:08:59.111Z,15.70
2022-10-10T23:11:27.222Z,15.80
2022-10-10T23:13:55.311Z,15.90
2022-10-10T23:16:23.586Z,15.90
2022-10-10T23:18:51.661Z,16.00
2022-10-10T23:21:21.474Z,16.10
2022-10-10T23:23:49.608Z,16.10
2022-10-10T23:26:17.836Z,16.20
2022-10-10T23:28:46.015Z,16.30
2022-10-10T23:31:15.028Z,16.40
2022-10-10T23:33:44.306Z,16.40
2022-10-10T23:36:13.887Z,16.40
2022-10-10T23:38:44.062Z,16.30
2022-10-10T23:41:12.981Z,16.20
2022-10-10T23:43:41.192Z,16.20
2022-10-10T23:46:09.517Z,16.10
2022-10-10T23:48:38.022Z,16.10
2022-10-10T23:51:06.711Z,16.00
2022-10-10T23:53:35.379Z,16.00
2022-10-10T23:56:05.351Z,16.00
2022-10-10T23:58:33.615Z,15.90
